In Rescue
 
Open Full Screen Window  High Contrast Mode
Wind Gusting 17 knots
11
November 29, 2022 8:00 AM CST
Present Weather: Snow and Freezing Fog
Weather Information
Wind Direction
  360 °
Wind Speed
  11 kt (13 mph)
Wind Gust
  17 kt (20 mph)
Altimeter
29.73 in
Visibility
1/4 SM
Temperature
-06° C
21° F
Dewpoint
-06° C
21° F
Humidity
100%
1hr Rain Fall
00.00 in.
24hr Rain Fall
00.00 in.
Sky Condition
Overcast @ 200 ft
LIFR

METAR KTKC 291400Z AUTO 36011G17KT 1/4SM SN FZFG OVC002 M06/M06 A2973 RMK AO2

FAA Disclaimer: The data displayed is for advisory purposes only and is not to be used for flight planning or operations.